KPCZ

Waupaca Municipal Airport

Waupaca, Wisconsin, USA
METAR KPCZ 260355Z AUTO 15003KT 10SM CLR 24/18 A2971 RMK AO2 T02380180
Observed Flight Rules
May-26 @ 03:55 UTC (20 minutes ago) Visual Flight Rules
Wind Visibility Clouds
150° at 3 knots 10 miles
  • Clear skies
Temperatures Readings
Current 24°C / 75°F
Dewpoint 18°C / 64°F
Humidity 69%
Altimeter 29.71" Hg
Pressure 1006 hPa
Elevation 252
METAR KPCZ 260355Z AUTO 15003KT 10SM CLR 24/18 A2971 RMK AO2 T02380180
Observed Flight Rules
May-26 @ 03:55 UTC
(20 minutes ago)
VFR
Wind Visibility
150° at 3 knots 10 miles
Clouds
  • Clear skies
Temperature Dewpoint
24°C / 75°F 18°C / 64°F
Humidity Altimeter Pressure
69% 29.71" Hg 1006 hPa